sensor_id;sensor_type;location;lat;lon;timestamp;P1;durP1;ratioP1;P2;durP2;ratioP2
59571;SDS011;74587;45.880;11.484;2024-03-17T00:00:59;40.22;;;18.50;;
59571;SDS011;74587;45.880;11.484;2024-03-17T00:03:26;40.57;;;17.17;;
59571;SDS011;74587;45.880;11.484;2024-03-17T00:05:55;46.58;;;19.55;;
59571;SDS011;74587;45.880;11.484;2024-03-17T00:08:25;45.25;;;19.08;;
59571;SDS011;74587;45.880;11.484;2024-03-17T00:10:58;43.47;;;17.70;;
59571;SDS011;74587;45.880;11.484;2024-03-17T00:13:24;33.72;;;14.07;;
59571;SDS011;74587;45.880;11.484;2024-03-17T00:15:51;42.17;;;16.37;;
59571;SDS011;74587;45.880;11.484;2024-03-17T00:18:18;34.60;;;14.90;;
59571;SDS011;74587;45.880;11.484;2024-03-17T00:20:44;33.28;;;14.25;;
59571;SDS011;74587;45.880;11.484;2024-03-17T00:23:32;35.25;;;13.85;;
59571;SDS011;74587;45.880;11.484;2024-03-17T00:25:58;24.02;;;10.18;;
59571;SDS011;74587;45.880;11.484;2024-03-17T00:28:25;26.27;;;9.20;;
59571;SDS011;74587;45.880;11.484;2024-03-17T00:30:54;29.65;;;10.52;;
59571;SDS011;74587;45.880;11.484;2024-03-17T00:33:23;14.45;;;5.90;;
59571;SDS011;74587;45.880;11.484;2024-03-17T00:35:50;17.10;;;7.40;;
59571;SDS011;74587;45.880;11.484;2024-03-17T00:38:17;20.58;;;7.85;;
59571;SDS011;74587;45.880;11.484;2024-03-17T00:40:44;28.83;;;11.37;;
59571;SDS011;74587;45.880;11.484;2024-03-17T01:09:14;14.52;;;4.95;;
59571;SDS011;74587;45.880;11.484;2024-03-17T02:51:28;13.38;;;5.35;;
59571;SDS011;74587;45.880;11.484;2024-03-17T02:53:54;13.02;;;4.90;;
59571;SDS011;74587;45.880;11.484;2024-03-17T02:56:24;17.87;;;6.47;;
59571;SDS011;74587;45.880;11.484;2024-03-17T02:59:10;13.98;;;5.80;;
59571;SDS011;74587;45.880;11.484;2024-03-17T03:01:37;14.73;;;5.82;;
59571;SDS011;74587;45.880;11.484;2024-03-17T03:04:04;12.32;;;4.93;;
59571;SDS011;74587;45.880;11.484;2024-03-17T03:06:31;13.32;;;5.13;;
59571;SDS011;74587;45.880;11.484;2024-03-17T03:09:04;11.90;;;4.87;;
59571;SDS011;74587;45.880;11.484;2024-03-17T03:11:51;12.68;;;4.43;;
59571;SDS011;74587;45.880;11.484;2024-03-17T03:22:05;11.97;;;4.17;;
59571;SDS011;74587;45.880;11.484;2024-03-17T03:24:52;14.77;;;5.18;;
59571;SDS011;74587;45.880;11.484;2024-03-17T03:50:55;14.68;;;5.22;;
59571;SDS011;74587;45.880;11.484;2024-03-17T03:53:27;14.82;;;5.75;;
59571;SDS011;74587;45.880;11.484;2024-03-17T04:08:46;8.18;;;3.40;;
59571;SDS011;74587;45.880;11.484;2024-03-17T04:11:14;9.82;;;3.45;;
59571;SDS011;74587;45.880;11.484;2024-03-17T04:26:54;10.13;;;3.67;;
59571;SDS011;74587;45.880;11.484;2024-03-17T04:29:21;10.20;;;3.50;;
59571;SDS011;74587;45.880;11.484;2024-03-17T04:31:47;9.02;;;3.42;;
59571;SDS011;74587;45.880;11.484;2024-03-17T04:34:14;8.43;;;3.45;;
59571;SDS011;74587;45.880;11.484;2024-03-17T04:36:40;10.33;;;3.47;;
59571;SDS011;74587;45.880;11.484;2024-03-17T04:39:06;7.47;;;2.50;;
59571;SDS011;74587;45.880;11.484;2024-03-17T04:41:33;11.05;;;3.70;;
59571;SDS011;74587;45.880;11.484;2024-03-17T04:43:59;10.48;;;3.33;;
59571;SDS011;74587;45.880;11.484;2024-03-17T04:46:25;9.60;;;3.07;;
59571;SDS011;74587;45.880;11.484;2024-03-17T04:48:51;8.85;;;3.13;;
59571;SDS011;74587;45.880;11.484;2024-03-17T04:51:17;11.18;;;3.22;;
59571;SDS011;74587;45.880;11.484;2024-03-17T04:53:43;10.48;;;3.58;;
59571;SDS011;74587;45.880;11.484;2024-03-17T04:56:09;10.57;;;3.57;;
59571;SDS011;74587;45.880;11.484;2024-03-17T04:58:35;8.38;;;2.95;;
59571;SDS011;74587;45.880;11.484;2024-03-17T05:01:04;7.50;;;2.45;;
59571;SDS011;74587;45.880;11.484;2024-03-17T05:03:34;9.30;;;2.67;;
59571;SDS011;74587;45.880;11.484;2024-03-17T05:06:00;10.03;;;3.27;;
59571;SDS011;74587;45.880;11.484;2024-03-17T05:08:28;10.25;;;3.45;;
59571;SDS011;74587;45.880;11.484;2024-03-17T05:10:58;9.45;;;3.70;;
59571;SDS011;74587;45.880;11.484;2024-03-17T05:13:28;13.73;;;5.15;;
59571;SDS011;74587;45.880;11.484;2024-03-17T05:15:54;10.43;;;3.65;;
59571;SDS011;74587;45.880;11.484;2024-03-17T05:18:21;9.03;;;3.67;;
59571;SDS011;74587;45.880;11.484;2024-03-17T05:21:00;7.40;;;2.67;;
59571;SDS011;74587;45.880;11.484;2024-03-17T05:23:29;9.30;;;2.88;;
59571;SDS011;74587;45.880;11.484;2024-03-17T05:25:56;8.05;;;3.05;;
59571;SDS011;74587;45.880;11.484;2024-03-17T05:28:25;7.20;;;2.25;;
59571;SDS011;74587;45.880;11.484;2024-03-17T05:30:54;9.47;;;2.87;;
59571;SDS011;74587;45.880;11.484;2024-03-17T05:33:22;8.13;;;2.53;;
59571;SDS011;74587;45.880;11.484;2024-03-17T05:35:53;7.38;;;2.08;;
59571;SDS011;74587;45.880;11.484;2024-03-17T05:38:41;7.10;;;2.20;;
59571;SDS011;74587;45.880;11.484;2024-03-17T05:41:10;7.78;;;2.13;;
59571;SDS011;74587;45.880;11.484;2024-03-17T05:43:37;7.80;;;2.80;;
59571;SDS011;74587;45.880;11.484;2024-03-17T05:48:54;8.18;;;2.58;;
59571;SDS011;74587;45.880;11.484;2024-03-17T06:29:19;6.43;;;1.75;;
59571;SDS011;74587;45.880;11.484;2024-03-17T06:50:11;8.87;;;2.97;;
59571;SDS011;74587;45.880;11.484;2024-03-17T06:52:37;11.43;;;3.33;;
59571;SDS011;74587;45.880;11.484;2024-03-17T06:55:03;6.82;;;2.50;;
59571;SDS011;74587;45.880;11.484;2024-03-17T06:57:30;8.30;;;2.72;;
59571;SDS011;74587;45.880;11.484;2024-03-17T06:59:56;10.13;;;3.80;;
59571;SDS011;74587;45.880;11.484;2024-03-17T07:02:22;9.20;;;2.90;;
59571;SDS011;74587;45.880;11.484;2024-03-17T07:04:48;10.43;;;2.72;;
59571;SDS011;74587;45.880;11.484;2024-03-17T07:07:13;7.07;;;2.10;;
59571;SDS011;74587;45.880;11.484;2024-03-17T07:09:42;10.35;;;3.15;;
59571;SDS011;74587;45.880;11.484;2024-03-17T07:12:08;9.15;;;4.50;;
59571;SDS011;74587;45.880;11.484;2024-03-17T07:14:35;11.10;;;4.57;;
59571;SDS011;74587;45.880;11.484;2024-03-17T07:17:01;10.60;;;4.50;;
59571;SDS011;74587;45.880;11.484;2024-03-17T07:19:27;12.25;;;5.10;;
59571;SDS011;74587;45.880;11.484;2024-03-17T07:21:54;20.00;;;8.35;;
59571;SDS011;74587;45.880;11.484;2024-03-17T07:24:20;12.20;;;5.10;;
59571;SDS011;74587;45.880;11.484;2024-03-17T07:26:49;10.65;;;3.05;;
59571;SDS011;74587;45.880;11.484;2024-03-17T07:29:15;10.20;;;3.42;;
59571;SDS011;74587;45.880;11.484;2024-03-17T07:31:41;13.20;;;3.55;;
59571;SDS011;74587;45.880;11.484;2024-03-17T07:34:07;9.93;;;3.40;;
59571;SDS011;74587;45.880;11.484;2024-03-17T07:36:33;9.10;;;3.47;;
59571;SDS011;74587;45.880;11.484;2024-03-17T07:38:59;10.18;;;4.15;;
59571;SDS011;74587;45.880;11.484;2024-03-17T07:41:25;11.03;;;4.03;;
59571;SDS011;74587;45.880;11.484;2024-03-17T07:43:51;13.18;;;3.38;;
59571;SDS011;74587;45.880;11.484;2024-03-17T07:46:17;10.07;;;3.28;;
59571;SDS011;74587;45.880;11.484;2024-03-17T07:48:44;9.73;;;4.47;;
59571;SDS011;74587;45.880;11.484;2024-03-17T07:51:11;11.50;;;4.93;;
59571;SDS011;74587;45.880;11.484;2024-03-17T07:53:39;11.00;;;4.43;;
59571;SDS011;74587;45.880;11.484;2024-03-17T07:56:07;14.45;;;3.33;;
59571;SDS011;74587;45.880;11.484;2024-03-17T07:58:39;10.90;;;2.83;;
59571;SDS011;74587;45.880;11.484;2024-03-17T08:01:06;6.47;;;2.47;;
59571;SDS011;74587;45.880;11.484;2024-03-17T08:03:39;6.75;;;2.38;;
59571;SDS011;74587;45.880;11.484;2024-03-17T08:06:07;13.00;;;4.63;;
59571;SDS011;74587;45.880;11.484;2024-03-17T08:08:33;18.75;;;4.35;;
59571;SDS011;74587;45.880;11.484;2024-03-17T08:11:00;15.00;;;3.15;;
59571;SDS011;74587;45.880;11.484;2024-03-17T08:13:28;8.63;;;2.03;;
59571;SDS011;74587;45.880;11.484;2024-03-17T08:15:59;7.45;;;1.73;;
59571;SDS011;74587;45.880;11.484;2024-03-17T08:18:26;13.75;;;2.80;;
59571;SDS011;74587;45.880;11.484;2024-03-17T08:20:52;8.88;;;2.60;;
59571;SDS011;74587;45.880;11.484;2024-03-17T08:23:19;7.75;;;2.50;;
59571;SDS011;74587;45.880;11.484;2024-03-17T08:25:55;10.50;;;2.30;;
59571;SDS011;74587;45.880;11.484;2024-03-17T08:28:22;7.43;;;1.92;;
59571;SDS011;74587;45.880;11.484;2024-03-17T08:30:53;10.93;;;2.58;;
59571;SDS011;74587;45.880;11.484;2024-03-17T08:33:28;8.23;;;2.13;;
59571;SDS011;74587;45.880;11.484;2024-03-17T08:36:05;9.38;;;1.90;;
59571;SDS011;74587;45.880;11.484;2024-03-17T08:38:32;11.13;;;5.20;;
59571;SDS011;74587;45.880;11.484;2024-03-17T08:41:06;10.32;;;3.72;;
59571;SDS011;74587;45.880;11.484;2024-03-17T08:43:33;13.50;;;2.80;;
59571;SDS011;74587;45.880;11.484;2024-03-17T08:48:29;8.80;;;2.60;;
59571;SDS011;74587;45.880;11.484;2024-03-17T08:50:57;7.50;;;1.90;;
59571;SDS011;74587;45.880;11.484;2024-03-17T08:53:24;8.88;;;2.47;;
59571;SDS011;74587;45.880;11.484;2024-03-17T08:55:50;10.38;;;2.75;;
59571;SDS011;74587;45.880;11.484;2024-03-17T08:58:16;10.05;;;2.00;;
59571;SDS011;74587;45.880;11.484;2024-03-17T09:03:24;14.50;;;9.40;;
59571;SDS011;74587;45.880;11.484;2024-03-17T09:05:52;7.43;;;3.13;;
59571;SDS011;74587;45.880;11.484;2024-03-17T09:08:23;7.90;;;2.30;;
59571;SDS011;74587;45.880;11.484;2024-03-17T09:10:50;10.10;;;2.28;;
59571;SDS011;74587;45.880;11.484;2024-03-17T09:13:18;4.93;;;2.20;;
59571;SDS011;74587;45.880;11.484;2024-03-17T09:18:17;10.68;;;1.70;;
59571;SDS011;74587;45.880;11.484;2024-03-17T09:20:43;9.63;;;1.50;;
59571;SDS011;74587;45.880;11.484;2024-03-17T09:23:09;6.43;;;1.13;;
59571;SDS011;74587;45.880;11.484;2024-03-17T09:25:34;5.40;;;1.17;;
59571;SDS011;74587;45.880;11.484;2024-03-17T09:28:00;5.07;;;0.68;;
59571;SDS011;74587;45.880;11.484;2024-03-17T09:30:26;7.03;;;1.70;;
59571;SDS011;74587;45.880;11.484;2024-03-17T09:32:52;4.38;;;1.13;;
59571;SDS011;74587;45.880;11.484;2024-03-17T09:35:18;4.88;;;0.70;;
59571;SDS011;74587;45.880;11.484;2024-03-17T09:37:46;6.17;;;0.90;;
59571;SDS011;74587;45.880;11.484;2024-03-17T09:40:17;4.30;;;1.00;;
59571;SDS011;74587;45.880;11.484;2024-03-17T09:42:43;5.47;;;1.33;;
59571;SDS011;74587;45.880;11.484;2024-03-17T09:45:11;7.83;;;1.40;;
59571;SDS011;74587;45.880;11.484;2024-03-17T09:47:40;7.50;;;1.83;;
59571;SDS011;74587;45.880;11.484;2024-03-17T09:50:12;10.98;;;1.67;;
59571;SDS011;74587;45.880;11.484;2024-03-17T09:52:44;8.05;;;2.58;;
59571;SDS011;74587;45.880;11.484;2024-03-17T09:55:15;4.63;;;1.27;;
59571;SDS011;74587;45.880;11.484;2024-03-17T09:57:43;6.38;;;1.13;;
59571;SDS011;74587;45.880;11.484;2024-03-17T10:00:10;7.03;;;1.40;;
59571;SDS011;74587;45.880;11.484;2024-03-17T10:02:45;7.40;;;1.85;;
59571;SDS011;74587;45.880;11.484;2024-03-17T10:05:21;5.90;;;1.30;;
59571;SDS011;74587;45.880;11.484;2024-03-17T10:07:49;5.83;;;2.13;;
59571;SDS011;74587;45.880;11.484;2024-03-17T10:10:15;4.65;;;1.20;;
59571;SDS011;74587;45.880;11.484;2024-03-17T10:12:42;8.60;;;2.13;;
59571;SDS011;74587;45.880;11.484;2024-03-17T10:15:11;6.78;;;1.83;;
59571;SDS011;74587;45.880;11.484;2024-03-17T10:17:37;7.05;;;2.35;;
59571;SDS011;74587;45.880;11.484;2024-03-17T10:20:13;9.07;;;2.80;;
59571;SDS011;74587;45.880;11.484;2024-03-17T10:22:41;14.25;;;4.50;;
59571;SDS011;74587;45.880;11.484;2024-03-17T10:25:22;13.23;;;4.03;;
59571;SDS011;74587;45.880;11.484;2024-03-17T10:27:48;11.80;;;4.50;;
59571;SDS011;74587;45.880;11.484;2024-03-17T10:30:17;15.27;;;5.43;;
59571;SDS011;74587;45.880;11.484;2024-03-17T10:39:31;21.10;;;8.02;;
59571;SDS011;74587;45.880;11.484;2024-03-17T10:41:58;17.15;;;7.53;;
59571;SDS011;74587;45.880;11.484;2024-03-17T10:44:28;14.05;;;6.35;;
59571;SDS011;74587;45.880;11.484;2024-03-17T10:46:59;19.88;;;8.07;;
59571;SDS011;74587;45.880;11.484;2024-03-17T10:49:31;23.90;;;8.57;;
59571;SDS011;74587;45.880;11.484;2024-03-17T10:52:00;17.98;;;8.60;;
59571;SDS011;74587;45.880;11.484;2024-03-17T10:54:27;21.58;;;9.23;;
59571;SDS011;74587;45.880;11.484;2024-03-17T10:57:07;22.77;;;9.43;;
59571;SDS011;74587;45.880;11.484;2024-03-17T10:59:56;16.67;;;7.72;;
59571;SDS011;74587;45.880;11.484;2024-03-17T11:02:24;24.80;;;10.73;;
59571;SDS011;74587;45.880;11.484;2024-03-17T11:04:56;17.13;;;7.70;;
59571;SDS011;74587;45.880;11.484;2024-03-17T11:07:27;21.85;;;11.05;;
59571;SDS011;74587;45.880;11.484;2024-03-17T11:09:54;23.52;;;9.27;;
59571;SDS011;74587;45.880;11.484;2024-03-17T11:12:55;22.83;;;10.13;;
59571;SDS011;74587;45.880;11.484;2024-03-17T11:20:56;19.92;;;9.88;;
59571;SDS011;74587;45.880;11.484;2024-03-17T11:23:26;20.65;;;8.68;;
59571;SDS011;74587;45.880;11.484;2024-03-17T11:25:55;18.75;;;8.52;;
59571;SDS011;74587;45.880;11.484;2024-03-17T11:31:06;17.35;;;7.97;;
59571;SDS011;74587;45.880;11.484;2024-03-17T11:34:01;14.23;;;6.28;;
59571;SDS011;74587;45.880;11.484;2024-03-17T11:36:33;12.70;;;5.18;;
59571;SDS011;74587;45.880;11.484;2024-03-17T11:41:46;11.37;;;5.17;;
59571;SDS011;74587;45.880;11.484;2024-03-17T11:51:57;11.02;;;4.05;;
59571;SDS011;74587;45.880;11.484;2024-03-17T11:54:31;11.47;;;3.80;;
59571;SDS011;74587;45.880;11.484;2024-03-17T11:57:02;7.90;;;2.30;;
59571;SDS011;74587;45.880;11.484;2024-03-17T11:59:54;15.90;;;4.30;;
59571;SDS011;74587;45.880;11.484;2024-03-17T12:02:22;10.63;;;3.53;;
59571;SDS011;74587;45.880;11.484;2024-03-17T12:04:51;13.55;;;4.18;;
59571;SDS011;74587;45.880;11.484;2024-03-17T12:07:22;14.13;;;5.40;;
59571;SDS011;74587;45.880;11.484;2024-03-17T12:09:49;14.20;;;5.47;;
59571;SDS011;74587;45.880;11.484;2024-03-17T12:12:22;15.43;;;5.85;;
59571;SDS011;74587;45.880;11.484;2024-03-17T12:14:49;16.27;;;4.95;;
59571;SDS011;74587;45.880;11.484;2024-03-17T12:17:24;12.30;;;4.90;;
59571;SDS011;74587;45.880;11.484;2024-03-17T12:19:50;13.37;;;6.13;;
59571;SDS011;74587;45.880;11.484;2024-03-17T12:22:20;14.15;;;6.38;;
59571;SDS011;74587;45.880;11.484;2024-03-17T12:24:48;15.32;;;5.50;;
59571;SDS011;74587;45.880;11.484;2024-03-17T12:27:19;12.05;;;4.85;;
59571;SDS011;74587;45.880;11.484;2024-03-17T12:29:46;12.00;;;5.75;;
59571;SDS011;74587;45.880;11.484;2024-03-17T12:32:14;13.97;;;6.63;;
59571;SDS011;74587;45.880;11.484;2024-03-17T12:34:44;16.98;;;5.72;;
59571;SDS011;74587;45.880;11.484;2024-03-17T12:37:21;16.95;;;7.15;;
59571;SDS011;74587;45.880;11.484;2024-03-17T12:39:48;15.23;;;6.03;;
59571;SDS011;74587;45.880;11.484;2024-03-17T12:42:16;14.25;;;6.53;;
59571;SDS011;74587;45.880;11.484;2024-03-17T12:44:55;18.67;;;7.60;;
59571;SDS011;74587;45.880;11.484;2024-03-17T12:47:26;12.55;;;5.38;;
59571;SDS011;74587;45.880;11.484;2024-03-17T12:49:54;14.55;;;6.40;;
59571;SDS011;74587;45.880;11.484;2024-03-17T13:00:46;23.25;;;10.10;;
59571;SDS011;74587;45.880;11.484;2024-03-17T13:03:33;22.10;;;9.70;;
59571;SDS011;74587;45.880;11.484;2024-03-17T13:06:00;17.77;;;7.45;;
59571;SDS011;74587;45.880;11.484;2024-03-17T13:08:27;18.67;;;8.93;;
59571;SDS011;74587;45.880;11.484;2024-03-17T13:10:53;19.33;;;8.67;;
59571;SDS011;74587;45.880;11.484;2024-03-17T13:13:20;17.45;;;8.65;;
59571;SDS011;74587;45.880;11.484;2024-03-17T13:15:46;23.77;;;9.88;;
59571;SDS011;74587;45.880;11.484;2024-03-17T13:18:20;24.07;;;10.60;;
59571;SDS011;74587;45.880;11.484;2024-03-17T13:20:47;20.80;;;10.10;;
59571;SDS011;74587;45.880;11.484;2024-03-17T13:23:14;19.42;;;9.65;;
59571;SDS011;74587;45.880;11.484;2024-03-17T13:25:41;26.63;;;10.02;;
59571;SDS011;74587;45.880;11.484;2024-03-17T13:28:08;17.92;;;8.07;;
59571;SDS011;74587;45.880;11.484;2024-03-17T13:30:35;17.57;;;7.37;;
59571;SDS011;74587;45.880;11.484;2024-03-17T13:33:04;21.10;;;11.13;;
59571;SDS011;74587;45.880;11.484;2024-03-17T13:35:33;21.90;;;10.02;;
59571;SDS011;74587;45.880;11.484;2024-03-17T13:38:03;25.30;;;11.48;;
59571;SDS011;74587;45.880;11.484;2024-03-17T13:40:33;27.92;;;11.48;;
59571;SDS011;74587;45.880;11.484;2024-03-17T13:43:00;31.43;;;15.20;;
59571;SDS011;74587;45.880;11.484;2024-03-17T13:45:27;27.70;;;13.45;;
59571;SDS011;74587;45.880;11.484;2024-03-17T13:50:22;29.65;;;14.23;;
59571;SDS011;74587;45.880;11.484;2024-03-17T13:52:48;29.40;;;14.10;;
59571;SDS011;74587;45.880;11.484;2024-03-17T13:55:15;28.07;;;14.93;;
59571;SDS011;74587;45.880;11.484;2024-03-17T13:57:50;27.70;;;14.73;;
59571;SDS011;74587;45.880;11.484;2024-03-17T14:00:19;38.30;;;16.65;;
59571;SDS011;74587;45.880;11.484;2024-03-17T14:02:46;35.17;;;17.73;;
59571;SDS011;74587;45.880;11.484;2024-03-17T14:05:14;35.13;;;17.10;;
59571;SDS011;74587;45.880;11.484;2024-03-17T14:07:41;35.53;;;18.00;;
59571;SDS011;74587;45.880;11.484;2024-03-17T14:10:08;35.58;;;16.20;;
59571;SDS011;74587;45.880;11.484;2024-03-17T14:12:35;34.20;;;17.50;;
59571;SDS011;74587;45.880;11.484;2024-03-17T14:15:03;27.73;;;13.57;;
59571;SDS011;74587;45.880;11.484;2024-03-17T14:17:32;32.60;;;16.13;;
59571;SDS011;74587;45.880;11.484;2024-03-17T14:19:58;34.27;;;16.00;;
59571;SDS011;74587;45.880;11.484;2024-03-17T14:22:24;30.55;;;14.20;;
59571;SDS011;74587;45.880;11.484;2024-03-17T14:24:50;28.92;;;14.10;;
59571;SDS011;74587;45.880;11.484;2024-03-17T14:27:17;33.58;;;17.52;;
59571;SDS011;74587;45.880;11.484;2024-03-17T14:29:45;30.20;;;14.87;;
59571;SDS011;74587;45.880;11.484;2024-03-17T14:32:11;34.33;;;17.40;;
59571;SDS011;74587;45.880;11.484;2024-03-17T14:34:39;31.95;;;15.05;;
59571;SDS011;74587;45.880;11.484;2024-03-17T14:37:05;31.10;;;16.37;;
59571;SDS011;74587;45.880;11.484;2024-03-17T14:39:30;31.83;;;16.58;;
59571;SDS011;74587;45.880;11.484;2024-03-17T14:41:57;39.92;;;17.38;;
59571;SDS011;74587;45.880;11.484;2024-03-17T14:44:23;48.83;;;28.40;;
59571;SDS011;74587;45.880;11.484;2024-03-17T14:46:49;34.30;;;18.05;;
59571;SDS011;74587;45.880;11.484;2024-03-17T14:49:19;38.80;;;18.08;;
59571;SDS011;74587;45.880;11.484;2024-03-17T14:51:47;38.90;;;19.20;;
59571;SDS011;74587;45.880;11.484;2024-03-17T14:54:12;36.72;;;19.00;;
59571;SDS011;74587;45.880;11.484;2024-03-17T14:56:38;41.75;;;20.10;;
59571;SDS011;74587;45.880;11.484;2024-03-17T14:59:07;38.17;;;18.98;;
59571;SDS011;74587;45.880;11.484;2024-03-17T15:01:33;35.90;;;18.77;;
59571;SDS011;74587;45.880;11.484;2024-03-17T15:03:59;39.97;;;19.38;;
59571;SDS011;74587;45.880;11.484;2024-03-17T15:06:25;43.30;;;20.58;;
59571;SDS011;74587;45.880;11.484;2024-03-17T15:08:52;38.45;;;19.73;;
59571;SDS011;74587;45.880;11.484;2024-03-17T15:11:18;36.00;;;19.50;;
59571;SDS011;74587;45.880;11.484;2024-03-17T15:13:44;36.05;;;17.88;;
59571;SDS011;74587;45.880;11.484;2024-03-17T15:16:10;35.50;;;18.02;;
59571;SDS011;74587;45.880;11.484;2024-03-17T15:18:37;31.57;;;17.40;;
59571;SDS011;74587;45.880;11.484;2024-03-17T15:21:03;37.90;;;17.77;;
59571;SDS011;74587;45.880;11.484;2024-03-17T15:23:32;39.60;;;19.00;;
59571;SDS011;74587;45.880;11.484;2024-03-17T15:26:07;39.97;;;19.65;;
59571;SDS011;74587;45.880;11.484;2024-03-17T15:28:34;39.00;;;19.47;;
59571;SDS011;74587;45.880;11.484;2024-03-17T15:31:10;33.33;;;17.85;;
59571;SDS011;74587;45.880;11.484;2024-03-17T15:33:36;31.25;;;17.60;;
59571;SDS011;74587;45.880;11.484;2024-03-17T15:36:06;39.85;;;20.17;;
59571;SDS011;74587;45.880;11.484;2024-03-17T15:38:36;33.70;;;18.63;;
59571;SDS011;74587;45.880;11.484;2024-03-17T15:41:03;34.83;;;17.43;;
59571;SDS011;74587;45.880;11.484;2024-03-17T15:43:39;40.95;;;21.25;;
59571;SDS011;74587;45.880;11.484;2024-03-17T15:46:07;33.25;;;17.20;;
59571;SDS011;74587;45.880;11.484;2024-03-17T15:48:33;35.72;;;18.13;;
59571;SDS011;74587;45.880;11.484;2024-03-17T15:50:59;39.07;;;18.90;;
59571;SDS011;74587;45.880;11.484;2024-03-17T15:53:26;38.33;;;19.38;;
59571;SDS011;74587;45.880;11.484;2024-03-17T15:58:22;30.85;;;14.73;;
59571;SDS011;74587;45.880;11.484;2024-03-17T16:00:48;29.67;;;15.60;;
59571;SDS011;74587;45.880;11.484;2024-03-17T16:03:14;30.43;;;15.53;;
59571;SDS011;74587;45.880;11.484;2024-03-17T16:05:44;30.75;;;16.13;;
59571;SDS011;74587;45.880;11.484;2024-03-17T16:08:11;31.60;;;15.63;;
59571;SDS011;74587;45.880;11.484;2024-03-17T16:10:37;29.35;;;15.27;;
59571;SDS011;74587;45.880;11.484;2024-03-17T16:13:05;28.83;;;16.03;;
59571;SDS011;74587;45.880;11.484;2024-03-17T16:15:31;31.27;;;16.75;;
59571;SDS011;74587;45.880;11.484;2024-03-17T16:17:57;30.35;;;16.85;;
59571;SDS011;74587;45.880;11.484;2024-03-17T16:20:36;32.72;;;16.70;;
59571;SDS011;74587;45.880;11.484;2024-03-17T16:23:06;29.43;;;15.23;;
59571;SDS011;74587;45.880;11.484;2024-03-17T16:25:32;31.02;;;14.63;;
59571;SDS011;74587;45.880;11.484;2024-03-17T16:27:57;27.30;;;15.33;;
59571;SDS011;74587;45.880;11.484;2024-03-17T16:30:25;31.35;;;14.48;;
59571;SDS011;74587;45.880;11.484;2024-03-17T16:32:51;27.27;;;15.82;;
59571;SDS011;74587;45.880;11.484;2024-03-17T16:35:17;34.23;;;16.40;;
59571;SDS011;74587;45.880;11.484;2024-03-17T16:37:43;30.20;;;14.95;;
59571;SDS011;74587;45.880;11.484;2024-03-17T16:40:09;30.83;;;17.30;;
59571;SDS011;74587;45.880;11.484;2024-03-17T16:42:34;51.43;;;25.10;;
59571;SDS011;74587;45.880;11.484;2024-03-17T16:45:04;32.83;;;17.08;;
59571;SDS011;74587;45.880;11.484;2024-03-17T16:47:31;34.10;;;16.35;;
59571;SDS011;74587;45.880;11.484;2024-03-17T16:50:00;32.17;;;16.60;;
59571;SDS011;74587;45.880;11.484;2024-03-17T16:52:31;37.20;;;18.80;;
59571;SDS011;74587;45.880;11.484;2024-03-17T16:54:58;35.05;;;16.02;;
59571;SDS011;74587;45.880;11.484;2024-03-17T16:57:24;29.20;;;16.00;;
59571;SDS011;74587;45.880;11.484;2024-03-17T16:59:49;30.95;;;15.70;;
59571;SDS011;74587;45.880;11.484;2024-03-17T17:02:16;34.37;;;16.73;;
59571;SDS011;74587;45.880;11.484;2024-03-17T17:04:43;27.00;;;14.40;;
59571;SDS011;74587;45.880;11.484;2024-03-17T17:07:11;33.17;;;16.17;;
59571;SDS011;74587;45.880;11.484;2024-03-17T17:09:37;25.65;;;13.60;;
59571;SDS011;74587;45.880;11.484;2024-03-17T17:12:04;29.97;;;14.90;;
59571;SDS011;74587;45.880;11.484;2024-03-17T17:14:31;27.77;;;14.43;;
59571;SDS011;74587;45.880;11.484;2024-03-17T17:17:10;26.75;;;13.95;;
59571;SDS011;74587;45.880;11.484;2024-03-17T17:19:37;33.83;;;17.27;;
59571;SDS011;74587;45.880;11.484;2024-03-17T17:22:07;31.02;;;17.73;;
59571;SDS011;74587;45.880;11.484;2024-03-17T17:24:38;29.30;;;15.43;;
59571;SDS011;74587;45.880;11.484;2024-03-17T17:27:04;32.75;;;17.10;;
59571;SDS011;74587;45.880;11.484;2024-03-17T17:29:37;32.53;;;16.67;;
59571;SDS011;74587;45.880;11.484;2024-03-17T17:32:06;30.65;;;16.55;;
59571;SDS011;74587;45.880;11.484;2024-03-17T17:34:36;30.47;;;15.33;;
59571;SDS011;74587;45.880;11.484;2024-03-17T17:37:02;28.65;;;15.52;;
59571;SDS011;74587;45.880;11.484;2024-03-17T17:39:28;44.05;;;23.63;;
59571;SDS011;74587;45.880;11.484;2024-03-17T17:41:54;38.58;;;18.95;;
59571;SDS011;74587;45.880;11.484;2024-03-17T17:44:21;39.93;;;19.87;;
59571;SDS011;74587;45.880;11.484;2024-03-17T17:46:47;35.38;;;18.83;;
59571;SDS011;74587;45.880;11.484;2024-03-17T17:49:13;48.28;;;23.27;;
59571;SDS011;74587;45.880;11.484;2024-03-17T17:51:39;35.90;;;18.37;;
59571;SDS011;74587;45.880;11.484;2024-03-17T17:54:05;34.45;;;18.65;;
59571;SDS011;74587;45.880;11.484;2024-03-17T17:56:31;36.33;;;17.85;;
59571;SDS011;74587;45.880;11.484;2024-03-17T17:58:56;36.63;;;18.90;;
59571;SDS011;74587;45.880;11.484;2024-03-17T18:01:22;32.83;;;17.70;;
59571;SDS011;74587;45.880;11.484;2024-03-17T18:03:48;27.67;;;14.90;;
59571;SDS011;74587;45.880;11.484;2024-03-17T18:06:16;31.53;;;16.93;;
59571;SDS011;74587;45.880;11.484;2024-03-17T18:08:42;32.58;;;16.95;;
59571;SDS011;74587;45.880;11.484;2024-03-17T18:11:08;35.70;;;18.60;;
59571;SDS011;74587;45.880;11.484;2024-03-17T18:13:34;31.07;;;16.67;;
59571;SDS011;74587;45.880;11.484;2024-03-17T18:16:01;30.17;;;16.80;;
59571;SDS011;74587;45.880;11.484;2024-03-17T18:18:34;37.53;;;18.98;;
59571;SDS011;74587;45.880;11.484;2024-03-17T18:21:04;29.73;;;15.40;;
59571;SDS011;74587;45.880;11.484;2024-03-17T18:23:35;35.57;;;18.33;;
59571;SDS011;74587;45.880;11.484;2024-03-17T18:26:06;39.38;;;19.80;;
59571;SDS011;74587;45.880;11.484;2024-03-17T18:28:36;37.83;;;19.15;;
59571;SDS011;74587;45.880;11.484;2024-03-17T18:31:02;40.38;;;18.58;;
59571;SDS011;74587;45.880;11.484;2024-03-17T18:33:31;34.35;;;17.40;;
59571;SDS011;74587;45.880;11.484;2024-03-17T18:35:57;32.07;;;16.67;;
59571;SDS011;74587;45.880;11.484;2024-03-17T18:38:23;36.28;;;18.20;;
59571;SDS011;74587;45.880;11.484;2024-03-17T18:40:59;33.90;;;16.70;;
59571;SDS011;74587;45.880;11.484;2024-03-17T18:43:29;29.20;;;14.65;;
59571;SDS011;74587;45.880;11.484;2024-03-17T18:45:56;25.87;;;13.00;;
59571;SDS011;74587;45.880;11.484;2024-03-17T18:48:22;19.20;;;9.65;;
59571;SDS011;74587;45.880;11.484;2024-03-17T18:50:48;20.65;;;9.68;;
59571;SDS011;74587;45.880;11.484;2024-03-17T18:53:21;22.73;;;10.52;;
59571;SDS011;74587;45.880;11.484;2024-03-17T18:55:55;20.70;;;9.53;;
59571;SDS011;74587;45.880;11.484;2024-03-17T18:58:28;14.70;;;8.10;;
59571;SDS011;74587;45.880;11.484;2024-03-17T19:00:55;13.95;;;6.30;;
59571;SDS011;74587;45.880;11.484;2024-03-17T19:03:22;14.85;;;6.55;;
59571;SDS011;74587;45.880;11.484;2024-03-17T19:05:49;12.63;;;5.77;;
59571;SDS011;74587;45.880;11.484;2024-03-17T19:08:20;11.52;;;5.15;;
59571;SDS011;74587;45.880;11.484;2024-03-17T19:10:51;12.50;;;5.35;;
59571;SDS011;74587;45.880;11.484;2024-03-17T19:13:18;11.40;;;5.20;;
59571;SDS011;74587;45.880;11.484;2024-03-17T19:15:44;10.40;;;4.75;;